UAE583 VGHS-OMDB
Flight info
| Callsign | UAE583 |
|---|---|
| Flight time | N/A |
| Altitude | 32000 |
| Route | IKOGU1D IKOGU A462 CEA G450 JJS A791 BPL L639 ISLIL/N0497F340 L639 RASKI L301 RAGMA N571 VUSET A454 PASOV B540 KUPMA/N0473F240 B540 MIVEK P574 IMPED |
| Aircraft | B77W/H-SDE1E2E3FGHIJ2J3J4J5M1RWXY/LB1D1 |
Departure
| Time | 2026-04-21 11:59 |
|---|---|
| Airport | Hazrat Shahjalal International Airport (VGHS) |
Arrival
| Time | N/A |
|---|---|
| Airport | Dubai International Airport (OMDB) |
| Time | Latitude | Longitude | Altitude | Speed | Heading |
|---|---|---|---|---|---|
| 2026-04-21 11:51 | 23.84746 | 90.40320 | 37 ft | 4 kts | 89° |
| 2026-04-21 11:51 | 23.84755 | 90.40299 | 35 ft | 4 kts | 144° |
| 2026-04-21 11:51 | 23.84770 | 90.40288 | 36 ft | 0 kts | 143° |
| 2026-04-21 11:54 | 23.84768 | 90.40289 | 36 ft | 2 kts | 143° |
| 2026-04-21 11:54 | 23.84734 | 90.40314 | 39 ft | 7 kts | 157° |
| 2026-04-21 11:54 | 23.84688 | 90.40300 | 41 ft | 7 kts | 224° |
| 2026-04-21 11:54 | 23.84658 | 90.40254 | 41 ft | 7 kts | 249° |
| 2026-04-21 11:55 | 23.84668 | 90.40197 | 41 ft | 10 kts | 300° |
| 2026-04-21 11:55 | 23.84770 | 90.40099 | 41 ft | 24 kts | 323° |
| 2026-04-21 11:55 | 23.84902 | 90.39993 | 41 ft | 24 kts | 324° |
| 2026-04-21 11:55 | 23.85035 | 90.39888 | 41 ft | 24 kts | 324° |
| 2026-04-21 11:56 | 23.85168 | 90.39782 | 41 ft | 24 kts | 324° |
| 2026-04-21 11:56 | 23.85256 | 90.39713 | 41 ft | 24 kts | 324° |
| 2026-04-21 11:56 | 23.85389 | 90.39607 | 41 ft | 24 kts | 324° |
| 2026-04-21 11:56 | 23.85521 | 90.39502 | 41 ft | 24 kts | 324° |
| 2026-04-21 11:57 | 23.85654 | 90.39396 | 41 ft | 24 kts | 324° |
| 2026-04-21 11:57 | 23.85749 | 90.39257 | 41 ft | 16 kts | 248° |
| 2026-04-21 11:57 | 23.85707 | 90.39186 | 41 ft | 16 kts | 236° |
| 2026-04-21 11:57 | 23.85641 | 90.39085 | 41 ft | 16 kts | 234° |
| 2026-04-21 11:58 | 23.85574 | 90.38985 | 40 ft | 16 kts | 234° |
| 2026-04-21 11:58 | 23.85504 | 90.38888 | 40 ft | 14 kts | 216° |
| 2026-04-21 11:58 | 23.85407 | 90.38934 | 40 ft | 31 kts | 146° |
| 2026-04-21 11:58 | 23.84988 | 90.39262 | 41 ft | 121 kts | 144° |
| 2026-04-21 11:59 | 23.84079 | 90.39984 | 164 ft | 188 kts | 143° |
| 2026-04-21 11:59 | 23.83053 | 90.40814 | 1298 ft | 182 kts | 143° |
| 2026-04-21 11:59 | 23.82005 | 90.41649 | 2142 ft | 196 kts | 144° |
| 2026-04-21 11:59 | 23.80838 | 90.42572 | 2415 ft | 224 kts | 144° |
| 2026-04-21 12:00 | 23.79526 | 90.43607 | 2872 ft | 245 kts | 144° |
| 2026-04-21 12:00 | 23.78121 | 90.44713 | 3495 ft | 253 kts | 147° |
| 2026-04-21 12:00 | 23.76662 | 90.45865 | 4304 ft | 264 kts | 147° |
| 2026-04-21 12:00 | 23.75146 | 90.47065 | 5040 ft | 276 kts | 147° |
| 2026-04-21 12:01 | 23.73563 | 90.48318 | 5798 ft | 285 kts | 146° |
| 2026-04-21 12:01 | 23.71929 | 90.49611 | 6585 ft | 293 kts | 147° |
| 2026-04-21 12:01 | 23.70118 | 90.50605 | 7206 ft | 295 kts | 172° |
| 2026-04-21 12:01 | 23.68099 | 90.50576 | 7958 ft | 290 kts | 201° |
| 2026-04-21 12:02 | 23.66335 | 90.49592 | 8822 ft | 283 kts | 224° |
| 2026-04-21 12:02 | 23.63804 | 90.46336 | 10292 ft | 291 kts | 237° |
| 2026-04-21 12:02 | 23.62503 | 90.44499 | 10498 ft | 319 kts | 237° |
| 2026-04-21 12:03 | 23.61097 | 90.42534 | 10698 ft | 346 kts | 236° |
| 2026-04-21 12:03 | 23.59568 | 90.40414 | 11118 ft | 363 kts | 236° |
| 2026-04-21 12:03 | 23.57983 | 90.38232 | 11848 ft | 370 kts | 236° |
| 2026-04-21 12:03 | 23.56368 | 90.36011 | 12653 ft | 375 kts | 236° |
| 2026-04-21 12:04 | 23.54741 | 90.33774 | 13533 ft | 378 kts | 236° |
| 2026-04-21 12:04 | 23.53136 | 90.31498 | 14306 ft | 379 kts | 239° |
| 2026-04-21 12:04 | 23.51689 | 90.29088 | 15032 ft | 382 kts | 242° |
| 2026-04-21 12:04 | 23.50306 | 90.26597 | 15738 ft | 386 kts | 242° |
| 2026-04-21 12:05 | 23.48925 | 90.24075 | 16431 ft | 390 kts | 242° |
| 2026-04-21 12:05 | 23.47518 | 90.21528 | 17148 ft | 395 kts | 241° |
| 2026-04-21 12:05 | 23.46079 | 90.18957 | 17840 ft | 399 kts | 241° |
| 2026-04-21 12:05 | 23.44614 | 90.16368 | 18462 ft | 402 kts | 240° |
| 2026-04-21 12:06 | 23.43154 | 90.13804 | 19121 ft | 404 kts | 240° |
| 2026-04-21 12:06 | 23.41668 | 90.11204 | 19758 ft | 406 kts | 239° |
| 2026-04-21 12:06 | 23.40154 | 90.08558 | 20394 ft | 408 kts | 239° |
| 2026-04-21 12:06 | 23.38665 | 90.05956 | 21035 ft | 410 kts | 239° |
| 2026-04-21 12:07 | 23.37157 | 90.03321 | 21660 ft | 412 kts | 239° |
| 2026-04-21 12:07 | 23.35636 | 90.00664 | 22287 ft | 414 kts | 239° |
| 2026-04-21 12:07 | 23.34173 | 89.98110 | 22857 ft | 417 kts | 239° |
| 2026-04-21 12:07 | 23.32646 | 89.95424 | 23402 ft | 415 kts | 242° |
| 2026-04-21 12:08 | 23.31588 | 89.92488 | 23687 ft | 421 kts | 258° |
| 2026-04-21 12:08 | 23.31275 | 89.89310 | 24118 ft | 425 kts | 268° |
| 2026-04-21 12:08 | 23.31564 | 89.86102 | 24645 ft | 428 kts | 281° |
| 2026-04-21 12:08 | 23.32437 | 89.82990 | 25110 ft | 432 kts | 285° |
| 2026-04-21 12:09 | 23.33404 | 89.79886 | 25531 ft | 435 kts | 285° |
| 2026-04-21 12:09 | 23.34362 | 89.76753 | 25953 ft | 438 kts | 284° |
| 2026-04-21 12:09 | 23.35285 | 89.73590 | 26397 ft | 439 kts | 284° |
| 2026-04-21 12:09 | 23.36175 | 89.70447 | 26863 ft | 438 kts | 282° |
| 2026-04-21 12:10 | 23.36660 | 89.67155 | 27123 ft | 437 kts | 268° |
| 2026-04-21 12:10 | 23.36308 | 89.63870 | 27502 ft | 438 kts | 257° |
| 2026-04-21 12:10 | 23.35405 | 89.60700 | 27958 ft | 439 kts | 247° |
| 2026-04-21 12:10 | 23.33918 | 89.57857 | 28308 ft | 440 kts | 238° |
| 2026-04-21 12:11 | 23.32212 | 89.55068 | 28576 ft | 445 kts | 238° |
| 2026-04-21 12:11 | 23.30476 | 89.52269 | 28900 ft | 447 kts | 238° |
| 2026-04-21 12:11 | 23.28734 | 89.49452 | 29281 ft | 448 kts | 238° |
| 2026-04-21 12:11 | 23.27006 | 89.46630 | 29652 ft | 450 kts | 238° |
| 2026-04-21 12:12 | 23.25280 | 89.43786 | 29933 ft | 451 kts | 239° |
| 2026-04-21 12:12 | 23.23558 | 89.40930 | 30236 ft | 451 kts | 239° |
| 2026-04-21 12:12 | 23.21846 | 89.38080 | 30629 ft | 449 kts | 239° |
| 2026-04-21 12:12 | 23.20142 | 89.35242 | 31113 ft | 445 kts | 239° |
| 2026-04-21 12:13 | 23.18456 | 89.32434 | 31548 ft | 443 kts | 239° |
| 2026-04-21 12:13 | 23.16768 | 89.29623 | 31670 ft | 447 kts | 239° |
| 2026-04-21 12:13 | 23.15068 | 89.26793 | 31676 ft | 447 kts | 239° |
| 2026-04-21 12:14 | 23.11682 | 89.21166 | 31664 ft | 443 kts | 239° |
| 2026-04-21 12:14 | 23.08293 | 89.15541 | 31670 ft | 446 kts | 239° |
| 2026-04-21 12:15 | 23.04914 | 89.09938 | 31676 ft | 447 kts | 239° |
| 2026-04-21 12:15 | 23.01502 | 89.04289 | 31669 ft | 447 kts | 239° |
| 2026-04-21 12:16 | 22.98145 | 88.98736 | 31669 ft | 446 kts | 239° |
| 2026-04-21 12:16 | 22.94744 | 88.93113 | 31674 ft | 445 kts | 239° |
| 2026-04-21 12:17 | 22.91396 | 88.87512 | 31675 ft | 444 kts | 240° |
| 2026-04-21 12:17 | 22.88226 | 88.81770 | 31667 ft | 444 kts | 242° |
| 2026-04-21 12:18 | 22.85070 | 88.75998 | 31675 ft | 446 kts | 242° |
| 2026-04-21 12:18 | 22.81873 | 88.70221 | 31680 ft | 447 kts | 241° |
| 2026-04-21 12:19 | 22.78658 | 88.64446 | 31682 ft | 448 kts | 241° |
| 2026-04-21 12:19 | 22.75434 | 88.58660 | 31681 ft | 449 kts | 241° |
| 2026-04-21 12:20 | 22.72207 | 88.52871 | 31685 ft | 449 kts | 241° |
| 2026-04-21 12:20 | 22.69351 | 88.46897 | 31706 ft | 446 kts | 253° |
| 2026-04-21 12:21 | 22.68110 | 88.40365 | 31700 ft | 447 kts | 264° |
| 2026-04-21 12:21 | 22.68308 | 88.33626 | 31695 ft | 449 kts | 272° |
| 2026-04-21 12:22 | 22.68824 | 88.26872 | 31688 ft | 450 kts | 272° |
| 2026-04-21 12:22 | 22.69316 | 88.20117 | 31686 ft | 450 kts | 272° |
| 2026-04-21 12:23 | 22.69772 | 88.13356 | 31685 ft | 450 kts | 272° |
| 2026-04-21 12:23 | 22.70211 | 88.06598 | 31690 ft | 450 kts | 271° |
| 2026-04-21 12:24 | 22.70638 | 87.99925 | 31675 ft | 449 kts | 271° |
| 2026-04-21 12:24 | 22.71063 | 87.93265 | 31679 ft | 449 kts | 271° |
| 2026-04-21 12:25 | 22.71491 | 87.86526 | 31681 ft | 448 kts | 271° |
| 2026-04-21 12:25 | 22.71916 | 87.79786 | 31676 ft | 448 kts | 271° |
| 2026-04-21 12:26 | 22.72338 | 87.73052 | 31677 ft | 448 kts | 271° |
| 2026-04-21 12:26 | 22.72758 | 87.66319 | 31679 ft | 447 kts | 271° |
| 2026-04-21 12:27 | 22.73173 | 87.59598 | 31671 ft | 446 kts | 271° |
| 2026-04-21 12:27 | 22.73584 | 87.52888 | 31663 ft | 446 kts | 271° |
| 2026-04-21 12:28 | 22.73990 | 87.46237 | 31670 ft | 445 kts | 271° |
| 2026-04-21 12:28 | 22.74395 | 87.39542 | 31666 ft | 445 kts | 271° |
| 2026-04-21 12:29 | 22.74798 | 87.32851 | 31662 ft | 445 kts | 271° |
| 2026-04-21 12:29 | 22.75197 | 87.26159 | 31671 ft | 445 kts | 270° |
| 2026-04-21 12:30 | 22.75594 | 87.19470 | 31666 ft | 445 kts | 270° |
| 2026-04-21 12:30 | 22.75988 | 87.12783 | 31674 ft | 444 kts | 270° |
| 2026-04-21 12:31 | 22.76379 | 87.06094 | 31680 ft | 444 kts | 270° |
| 2026-04-21 12:31 | 22.76758 | 86.99566 | 31684 ft | 444 kts | 270° |
| 2026-04-21 12:32 | 22.77143 | 86.92886 | 31709 ft | 444 kts | 270° |
| 2026-04-21 12:32 | 22.77525 | 86.86214 | 31701 ft | 443 kts | 270° |
| 2026-04-21 12:33 | 22.77904 | 86.79546 | 31699 ft | 443 kts | 270° |
| 2026-04-21 12:33 | 22.78279 | 86.72880 | 31713 ft | 443 kts | 270° |
| 2026-04-21 12:34 | 22.78652 | 86.66224 | 31716 ft | 443 kts | 270° |
| 2026-04-21 12:34 | 22.79022 | 86.59565 | 31727 ft | 443 kts | 270° |
| 2026-04-21 12:35 | 22.79389 | 86.52903 | 31741 ft | 443 kts | 270° |
| 2026-04-21 12:35 | 22.79753 | 86.46249 | 31729 ft | 442 kts | 270° |
| 2026-04-21 12:36 | 22.80115 | 86.39616 | 31747 ft | 440 kts | 270° |
| 2026-04-21 12:36 | 22.80468 | 86.33033 | 31743 ft | 440 kts | 270° |
| 2026-04-21 12:37 | 22.80822 | 86.26416 | 31743 ft | 440 kts | 270° |
| 2026-04-21 12:37 | 22.81174 | 86.19797 | 31656 ft | 440 kts | 270° |
| 2026-04-21 12:38 | 22.81589 | 86.13179 | 31657 ft | 441 kts | 271° |
| 2026-04-21 12:38 | 22.82160 | 86.06551 | 31667 ft | 441 kts | 271° |
| 2026-04-21 12:39 | 22.82738 | 85.99947 | 31685 ft | 442 kts | 271° |
| 2026-04-21 12:39 | 22.83286 | 85.93434 | 31714 ft | 442 kts | 271° |
| 2026-04-21 12:40 | 22.83831 | 85.86794 | 31747 ft | 442 kts | 271° |
| 2026-04-21 12:40 | 22.84372 | 85.80143 | 31770 ft | 442 kts | 271° |
| 2026-04-21 12:41 | 22.84909 | 85.73499 | 31787 ft | 442 kts | 271° |
| 2026-04-21 12:41 | 22.85446 | 85.66858 | 31795 ft | 442 kts | 271° |
| 2026-04-21 12:42 | 22.85976 | 85.60225 | 31815 ft | 441 kts | 271° |
| 2026-04-21 12:42 | 22.86416 | 85.54707 | 31825 ft | 442 kts | 271° |
| 2026-04-21 12:43 | 22.86944 | 85.48070 | 31815 ft | 442 kts | 271° |
| 2026-04-21 12:43 | 22.87469 | 85.41437 | 31827 ft | 441 kts | 271° |
| 2026-04-21 12:44 | 22.87990 | 85.34804 | 31833 ft | 441 kts | 271° |
| 2026-04-21 12:44 | 22.88509 | 85.28164 | 31827 ft | 442 kts | 271° |
| 2026-04-21 12:45 | 22.89026 | 85.21525 | 31837 ft | 442 kts | 271° |
| 2026-04-21 12:45 | 22.89537 | 85.14927 | 31823 ft | 442 kts | 271° |
| 2026-04-21 12:46 | 22.90048 | 85.08280 | 31830 ft | 442 kts | 271° |
| 2026-04-21 12:46 | 22.90557 | 85.01641 | 31840 ft | 442 kts | 270° |
| 2026-04-21 12:47 | 22.91056 | 84.95109 | 31846 ft | 442 kts | 270° |
| 2026-04-21 12:47 | 22.91560 | 84.88471 | 31856 ft | 442 kts | 270° |
| 2026-04-21 12:48 | 22.92061 | 84.81828 | 31852 ft | 442 kts | 270° |
| 2026-04-21 12:48 | 22.92561 | 84.75170 | 31836 ft | 442 kts | 270° |
| 2026-04-21 12:49 | 22.93055 | 84.68555 | 31853 ft | 442 kts | 270° |
| 2026-04-21 12:49 | 22.93549 | 84.61895 | 31849 ft | 443 kts | 270° |
| 2026-04-21 12:50 | 22.94041 | 84.55238 | 31854 ft | 442 kts | 270° |
| 2026-04-21 12:50 | 22.94529 | 84.48580 | 31851 ft | 443 kts | 270° |
| 2026-04-21 12:51 | 22.95015 | 84.41923 | 31849 ft | 443 kts | 270° |
| 2026-04-21 12:51 | 22.95499 | 84.35251 | 31843 ft | 443 kts | 270° |
| 2026-04-21 12:52 | 22.95977 | 84.28623 | 31899 ft | 445 kts | 270° |
| 2026-04-21 12:52 | 22.96218 | 84.25259 | 32162 ft | 446 kts | 270° |
| 2026-04-21 12:52 | 22.96458 | 84.21918 | 32623 ft | 443 kts | 270° |
| 2026-04-21 12:52 | 22.96696 | 84.18602 | 33139 ft | 438 kts | 269° |
| 2026-04-21 12:53 | 22.96931 | 84.15321 | 33640 ft | 434 kts | 269° |
| 2026-04-21 12:53 | 22.97160 | 84.12068 | 34062 ft | 431 kts | 268° |
| 2026-04-21 12:53 | 22.97357 | 84.08827 | 34381 ft | 429 kts | 268° |
| 2026-04-21 12:53 | 22.97532 | 84.05597 | 34644 ft | 429 kts | 268° |
| 2026-04-21 12:54 | 22.97700 | 84.02359 | 34894 ft | 429 kts | 268° |
| 2026-04-21 12:54 | 22.97860 | 83.99241 | 35201 ft | 426 kts | 268° |
| 2026-04-21 12:54 | 22.98028 | 83.96031 | 35476 ft | 425 kts | 267° |
| 2026-04-21 12:54 | 22.98195 | 83.92826 | 35698 ft | 426 kts | 267° |
| 2026-04-21 12:55 | 22.98362 | 83.89652 | 35761 ft | 429 kts | 267° |
| 2026-04-21 12:55 | 22.98707 | 83.83199 | 35869 ft | 425 kts | 267° |
| 2026-04-21 12:56 | 22.99048 | 83.76868 | 35855 ft | 416 kts | 267° |
| 2026-04-21 12:56 | 22.99378 | 83.70593 | 35854 ft | 416 kts | 267° |
| 2026-04-21 12:57 | 22.99702 | 83.64310 | 35856 ft | 417 kts | 267° |
| 2026-04-21 12:57 | 23.00025 | 83.58050 | 35849 ft | 417 kts | 267° |
| 2026-04-21 12:58 | 23.00349 | 83.51752 | 35855 ft | 418 kts | 267° |
| 2026-04-21 12:58 | 23.00672 | 83.45433 | 35834 ft | 419 kts | 267° |
| 2026-04-21 12:59 | 23.00991 | 83.39123 | 35832 ft | 419 kts | 267° |
| 2026-04-21 12:59 | 23.01307 | 83.32836 | 35829 ft | 419 kts | 267° |
| 2026-04-21 13:00 | 23.01622 | 83.26521 | 35814 ft | 419 kts | 267° |
| 2026-04-21 13:00 | 23.01934 | 83.20211 | 35831 ft | 418 kts | 267° |
| 2026-04-21 13:01 | 23.02244 | 83.13903 | 35817 ft | 418 kts | 266° |
| 2026-04-21 13:01 | 23.02549 | 83.07641 | 35816 ft | 417 kts | 266° |
| 2026-04-21 13:02 | 23.02852 | 83.01345 | 35806 ft | 417 kts | 266° |
| 2026-04-21 13:02 | 23.03297 | 82.92014 | 35803 ft | 417 kts | 266° |
| 2026-04-21 13:03 | 23.03594 | 82.85722 | 35797 ft | 418 kts | 266° |
| 2026-04-21 13:03 | 23.03889 | 82.79419 | 35793 ft | 418 kts | 266° |
| 2026-04-21 13:04 | 23.04182 | 82.73120 | 35795 ft | 418 kts | 266° |
| 2026-04-21 13:04 | 23.04470 | 82.66851 | 35778 ft | 418 kts | 266° |
| 2026-04-21 13:05 | 23.04759 | 82.60532 | 35798 ft | 418 kts | 266° |
| 2026-04-21 13:05 | 23.05045 | 82.54224 | 35790 ft | 418 kts | 266° |
| 2026-04-21 13:06 | 23.05328 | 82.47910 | 35775 ft | 418 kts | 266° |
| 2026-04-21 13:06 | 23.05608 | 82.41598 | 35776 ft | 419 kts | 266° |
| 2026-04-21 13:07 | 23.05886 | 82.35323 | 35794 ft | 419 kts | 266° |
| 2026-04-21 13:07 | 23.06161 | 82.29005 | 35782 ft | 418 kts | 266° |
| 2026-04-21 13:08 | 23.06435 | 82.22693 | 35788 ft | 418 kts | 266° |
| 2026-04-21 13:08 | 23.06705 | 82.16399 | 35788 ft | 417 kts | 266° |
| 2026-04-21 13:09 | 23.07066 | 82.10092 | 35793 ft | 418 kts | 267° |
| 2026-04-21 13:09 | 23.07478 | 82.03784 | 35785 ft | 418 kts | 267° |
| 2026-04-21 13:10 | 23.07872 | 81.97625 | 35796 ft | 418 kts | 267° |
| 2026-04-21 13:10 | 23.08264 | 81.91320 | 35786 ft | 418 kts | 267° |
| 2026-04-21 13:11 | 23.08651 | 81.85015 | 35791 ft | 418 kts | 267° |
| 2026-04-21 13:11 | 23.09035 | 81.78707 | 35797 ft | 418 kts | 267° |
| 2026-04-21 13:12 | 23.09414 | 81.72403 | 35793 ft | 418 kts | 267° |
| 2026-04-21 13:12 | 23.09791 | 81.66098 | 35798 ft | 418 kts | 267° |
| 2026-04-21 13:13 | 23.10165 | 81.59826 | 35803 ft | 418 kts | 267° |
| 2026-04-21 13:13 | 23.10537 | 81.53532 | 35802 ft | 418 kts | 267° |
| 2026-04-21 13:14 | 23.10908 | 81.47227 | 35808 ft | 417 kts | 267° |